createdAt,value
2022-08-27T00:02:13.154Z,88.50
2022-08-27T00:04:44.396Z,89.20
2022-08-27T00:07:18.175Z,89.00
2022-08-27T00:09:50.271Z,88.50
2022-08-27T00:12:21.834Z,87.80
2022-08-27T00:14:54.333Z,87.80
2022-08-27T00:17:24.661Z,88.10
2022-08-27T00:19:55.035Z,88.20
2022-08-27T00:22:25.857Z,88.00
2022-08-27T00:24:59.302Z,88.70
2022-08-27T00:27:29.898Z,89.40
2022-08-27T00:30:00.330Z,88.90
2022-08-27T00:32:30.692Z,89.40
2022-08-27T00:35:01.356Z,89.30
2022-08-27T00:37:32.089Z,88.30
2022-08-27T00:40:03.028Z,88.10
2022-08-27T00:42:33.352Z,87.50
2022-08-27T00:45:03.722Z,87.00
2022-08-27T00:47:36.159Z,86.80
2022-08-27T00:50:14.962Z,86.80
2022-08-27T00:53:07.708Z,86.10
2022-08-27T00:55:55.989Z,86.40
2022-08-27T00:58:30.756Z,86.40
2022-08-27T01:01:22.185Z,85.90
2022-08-27T01:03:55.740Z,85.90
2022-08-27T01:06:31.750Z,86.90
2022-08-27T01:09:11.379Z,86.50
2022-08-27T01:11:42.552Z,85.10
2022-08-27T01:14:13.076Z,85.40
2022-08-27T01:16:48.273Z,84.50
2022-08-27T01:19:45.621Z,85.70
2022-08-27T01:22:43.244Z,86.00
2022-08-27T01:25:18.410Z,83.70
2022-08-27T01:27:49.750Z,83.60
2022-08-27T01:30:23.340Z,82.90
2022-08-27T01:32:54.443Z,82.90
2022-08-27T01:35:26.519Z,82.30
2022-08-27T01:37:58.481Z,82.60
2022-08-27T01:40:30.649Z,82.20
2022-08-27T01:43:01.432Z,83.40
2022-08-27T01:45:35.594Z,82.40
2022-08-27T01:48:09.523Z,81.90
2022-08-27T01:50:42.176Z,82.60
2022-08-27T01:53:19.390Z,81.70
2022-08-27T01:55:52.056Z,81.80
2022-08-27T01:58:26.943Z,80.50
2022-08-27T02:01:01.309Z,81.50
2022-08-27T02:03:32.055Z,81.80
2022-08-27T02:06:05.711Z,82.10
2022-08-27T02:08:39.566Z,81.20
2022-08-27T02:11:11.733Z,81.50
2022-08-27T02:13:42.122Z,80.80
2022-08-27T02:16:12.528Z,80.70
2022-08-27T02:18:43.929Z,80.90
2022-08-27T02:21:15.058Z,81.40
2022-08-27T02:23:49.126Z,79.70
2022-08-27T02:26:19.928Z,81.40
2022-08-27T02:28:50.383Z,81.40
2022-08-27T02:31:22.035Z,81.50
2022-08-27T02:33:52.909Z,80.50
2022-08-27T02:36:27.421Z,80.60
2022-08-27T02:38:58.172Z,80.50
2022-08-27T02:41:28.511Z,80.00
2022-08-27T02:43:58.758Z,80.10
2022-08-27T02:46:32.043Z,79.40
2022-08-27T02:49:02.780Z,78.50
2022-08-27T02:51:33.096Z,77.00
2022-08-27T02:54:04.869Z,75.70
2022-08-27T02:56:39.505Z,76.00
2022-08-27T02:59:09.796Z,74.60
2022-08-27T03:01:40.283Z,75.10
2022-08-27T03:04:10.693Z,74.40
2022-08-27T03:06:41.195Z,74.60
2022-08-27T03:09:12.644Z,73.60
2022-08-27T03:11:43.678Z,74.70
2022-08-27T03:14:14.609Z,73.50
2022-08-27T03:16:44.942Z,73.90
2022-08-27T03:19:17.585Z,73.40
2022-08-27T03:21:54.410Z,75.80
2022-08-27T03:24:25.247Z,75.30
2022-08-27T03:26:55.727Z,72.70
2022-08-27T03:29:25.986Z,72.30
2022-08-27T03:31:56.819Z,72.60
2022-08-27T03:34:27.277Z,72.50
2022-08-27T03:36:57.635Z,72.40
2022-08-27T03:42:11.022Z,72.60
2022-08-27T03:44:41.981Z,73.40
2022-08-27T03:47:12.633Z,73.90
2022-08-27T03:49:43.539Z,74.30
2022-08-27T03:52:13.958Z,75.10
2022-08-27T03:54:44.822Z,74.20
2022-08-27T03:57:16.284Z,74.30
2022-08-27T03:59:47.096Z,73.80
2022-08-27T04:02:18.094Z,73.80
2022-08-27T04:04:48.860Z,73.80
2022-08-27T04:07:19.145Z,73.40
2022-08-27T04:09:49.514Z,72.00
2022-08-27T04:12:20.157Z,73.00
2022-08-27T04:14:51.267Z,72.70
2022-08-27T04:17:21.613Z,73.00
2022-08-27T04:19:55.121Z,73.20
2022-08-27T04:22:27.091Z,74.30
2022-08-27T04:24:57.878Z,74.30
2022-08-27T04:27:28.372Z,74.80
2022-08-27T04:30:00.413Z,75.60
2022-08-27T04:32:31.904Z,75.00
2022-08-27T04:35:05.018Z,75.00
2022-08-27T04:37:36.312Z,75.30
2022-08-27T04:40:08.763Z,75.60
2022-08-27T04:42:39.742Z,75.70
2022-08-27T04:45:10.932Z,76.00
2022-08-27T04:47:41.198Z,76.00
2022-08-27T04:50:11.769Z,75.50
2022-08-27T04:52:43.704Z,75.60
2022-08-27T04:55:14.474Z,76.70
2022-08-27T04:57:44.657Z,75.50
2022-08-27T05:00:17.376Z,76.60
2022-08-27T05:02:48.185Z,77.00
2022-08-27T05:05:20.409Z,75.80
2022-08-27T05:07:51.030Z,76.30
2022-08-27T05:10:21.933Z,76.60
2022-08-27T05:12:52.174Z,75.30
2022-08-27T05:15:22.612Z,75.10
2022-08-27T05:17:52.964Z,74.10
2022-08-27T05:20:23.711Z,75.30
2022-08-27T05:22:55.368Z,76.20
2022-08-27T05:25:27.643Z,75.30
2022-08-27T05:27:58.296Z,75.30
2022-08-27T05:30:29.008Z,74.40
2022-08-27T05:33:00.352Z,72.80
2022-08-27T05:35:30.763Z,73.90
2022-08-27T05:38:01.940Z,74.70
2022-08-27T05:40:32.197Z,74.60
2022-08-27T05:43:21.878Z,74.90
2022-08-27T05:46:13.777Z,75.90
2022-08-27T05:48:45.129Z,75.40
2022-08-27T05:51:22.548Z,74.60
2022-08-27T05:54:09.021Z,75.60
2022-08-27T05:56:40.840Z,75.90
2022-08-27T05:59:29.470Z,75.10
2022-08-27T06:02:00.440Z,76.00
2022-08-27T06:04:32.825Z,76.50
2022-08-27T06:07:03.285Z,76.70
2022-08-27T06:09:33.638Z,76.50
2022-08-27T06:12:04.382Z,76.20
2022-08-27T06:14:34.879Z,76.80
2022-08-27T06:17:06.362Z,77.30
2022-08-27T06:19:38.180Z,78.50
2022-08-27T06:22:10.395Z,77.70
2022-08-27T06:24:45.542Z,77.40
2022-08-27T06:27:19.563Z,77.80
2022-08-27T06:29:49.908Z,77.60
2022-08-27T06:32:21.096Z,78.40
2022-08-27T06:34:51.651Z,78.10
2022-08-27T06:37:21.983Z,77.80
2022-08-27T06:39:53.820Z,77.50
2022-08-27T06:42:24.612Z,77.50
2022-08-27T06:44:56.171Z,78.60
2022-08-27T06:47:26.530Z,79.30
2022-08-27T06:49:58.464Z,80.30
2022-08-27T06:52:28.710Z,81.00
2022-08-27T06:54:59.730Z,82.20
2022-08-27T06:57:30.419Z,82.80
2022-08-27T07:00:01.298Z,83.50
2022-08-27T07:02:31.702Z,84.40
2022-08-27T07:05:02.032Z,84.60
2022-08-27T07:07:36.814Z,84.60
2022-08-27T07:10:14.881Z,85.00
2022-08-27T07:12:45.236Z,85.20
2022-08-27T07:15:15.732Z,85.70
2022-08-27T07:17:48.763Z,85.20
2022-08-27T07:20:20.873Z,85.60
2022-08-27T07:22:51.654Z,85.90
2022-08-27T07:25:22.454Z,86.00
2022-08-27T07:27:53.402Z,86.20
2022-08-27T07:30:24.049Z,86.70
2022-08-27T07:32:54.309Z,87.10
2022-08-27T07:35:25.871Z,87.00
2022-08-27T07:37:57.821Z,87.20
2022-08-27T07:40:28.232Z,87.80
2022-08-27T07:43:16.296Z,88.10
2022-08-27T07:45:52.331Z,88.20
2022-08-27T07:48:23.164Z,89.10
2022-08-27T07:50:54.797Z,89.80
2022-08-27T07:53:25.745Z,90.10
2022-08-27T07:55:56.048Z,89.90
2022-08-27T07:58:26.293Z,90.20
2022-08-27T08:00:58.857Z,90.30
2022-08-27T08:03:30.519Z,90.60
2022-08-27T08:06:07.922Z,90.60
2022-08-27T08:08:39.549Z,90.70
2022-08-27T08:11:14.759Z,90.70
2022-08-27T08:13:46.487Z,90.70
2022-08-27T08:16:17.643Z,90.90
2022-08-27T08:18:48.059Z,90.80
2022-08-27T08:21:20.346Z,91.30
2022-08-27T08:23:51.044Z,90.90
2022-08-27T08:26:21.488Z,90.90
2022-08-27T08:28:51.768Z,90.90
2022-08-27T08:31:22.419Z,90.90
2022-08-27T08:33:53.899Z,91.00
2022-08-27T08:36:24.400Z,91.00
2022-08-27T08:38:55.750Z,91.10
2022-08-27T08:41:26.065Z,91.20
2022-08-27T08:44:02.115Z,91.20
2022-08-27T08:46:58.280Z,91.20
2022-08-27T08:50:05.731Z,91.30
2022-08-27T08:52:50.113Z,91.20
2022-08-27T08:55:34.122Z,91.40
2022-08-27T08:58:16.940Z,91.50
2022-08-27T09:00:51.326Z,91.50
2022-08-27T09:03:21.678Z,91.60
2022-08-27T09:06:21.005Z,91.60
2022-08-27T09:08:51.908Z,91.80
2022-08-27T09:11:37.744Z,91.90
2022-08-27T09:14:26.444Z,92.10
2022-08-27T09:16:58.003Z,92.00
2022-08-27T09:19:29.174Z,92.00
2022-08-27T09:22:22.082Z,92.10
2022-08-27T09:25:34.615Z,92.20
2022-08-27T09:28:42.388Z,92.20
2022-08-27T09:31:18.416Z,92.40
2022-08-27T09:33:56.976Z,92.30
2022-08-27T09:36:29.358Z,92.40
2022-08-27T09:39:06.306Z,92.40
2022-08-27T09:41:46.918Z,92.50
2022-08-27T09:44:22.044Z,92.40
2022-08-27T09:47:01.419Z,92.50
2022-08-27T09:49:36.793Z,92.50
2022-08-27T09:52:08.213Z,92.60
2022-08-27T09:54:48.961Z,92.60
2022-08-27T09:57:42.894Z,92.60
2022-08-27T10:00:32.401Z,92.60
2022-08-27T10:03:05.399Z,92.70
2022-08-27T10:05:42.058Z,92.60
2022-08-27T10:08:46.748Z,92.70
2022-08-27T10:11:40.611Z,93.00
2022-08-27T10:14:16.007Z,93.10
2022-08-27T10:16:58.911Z,93.10
2022-08-27T10:20:07.667Z,93.10
2022-08-27T10:22:43.487Z,92.90
2022-08-27T10:25:43.014Z,93.10
2022-08-27T10:28:23.248Z,93.00
2022-08-27T10:31:12.363Z,93.50
2022-08-27T10:34:20.856Z,92.90
2022-08-27T10:37:23.464Z,92.90
2022-08-27T10:40:39.078Z,93.00
2022-08-27T10:43:34.670Z,92.70
2022-08-27T10:46:28.032Z,92.70
2022-08-27T10:49:08.030Z,92.80
2022-08-27T10:51:54.402Z,93.00
2022-08-27T10:55:00.196Z,93.20
2022-08-27T10:58:02.529Z,93.10
2022-08-27T11:00:53.347Z,92.90
2022-08-27T11:03:36.277Z,93.00
2022-08-27T11:06:48.044Z,92.90
2022-08-27T11:09:21.407Z,93.00
2022-08-27T11:12:16.105Z,93.10
2022-08-27T11:15:03.521Z,93.20
2022-08-27T11:18:01.607Z,93.20
2022-08-27T11:20:37.166Z,93.20
2022-08-27T11:23:21.230Z,93.20
2022-08-27T11:26:03.036Z,93.10
2022-08-27T11:28:39.399Z,93.30
2022-08-27T11:31:27.702Z,93.20
2022-08-27T11:34:10.230Z,93.30
2022-08-27T11:37:14.828Z,93.40
2022-08-27T11:40:06.575Z,93.40
2022-08-27T11:42:50.029Z,93.30
2022-08-27T11:45:43.601Z,93.20
2022-08-27T11:48:27.414Z,93.10
2022-08-27T11:51:13.880Z,93.20
2022-08-27T11:54:00.946Z,92.90
2022-08-27T11:56:42.087Z,93.00
2022-08-27T11:59:29.002Z,92.80
2022-08-27T12:02:21.124Z,92.70
2022-08-27T12:04:53.374Z,92.70
2022-08-27T12:07:24.151Z,92.80
2022-08-27T12:10:18.801Z,92.70
2022-08-27T12:12:55.906Z,92.60
2022-08-27T12:16:14.119Z,92.70
2022-08-27T12:19:04.306Z,93.10
2022-08-27T12:21:39.135Z,93.00
2022-08-27T12:24:32.851Z,93.10
2022-08-27T12:27:23.632Z,93.10
2022-08-27T12:29:54.852Z,93.10
2022-08-27T12:32:34.827Z,93.10
2022-08-27T12:35:11.537Z,93.10
2022-08-27T12:37:57.776Z,93.20
2022-08-27T12:40:48.217Z,93.40
2022-08-27T12:43:29.280Z,93.40
2022-08-27T12:46:17.450Z,93.50
2022-08-27T12:48:53.787Z,93.40
2022-08-27T12:51:46.960Z,93.40
2022-08-27T12:54:28.945Z,93.40
2022-08-27T12:57:35.855Z,93.30
2022-08-27T13:00:15.159Z,93.20
2022-08-27T13:03:02.130Z,93.20
2022-08-27T13:05:44.816Z,93.30
2022-08-27T13:08:37.778Z,93.20
2022-08-27T13:11:20.800Z,93.50
2022-08-27T13:13:52.470Z,93.30
2022-08-27T13:16:27.246Z,93.50
2022-08-27T13:18:57.857Z,93.40
2022-08-27T13:21:32.179Z,93.30
2022-08-27T13:24:05.225Z,93.40
2022-08-27T13:26:39.155Z,93.50
2022-08-27T13:29:10.296Z,93.50
2022-08-27T13:31:41.529Z,93.50
2022-08-27T13:34:14.199Z,93.50
2022-08-27T13:37:10.318Z,93.50
2022-08-27T13:39:41.653Z,93.40
2022-08-27T13:42:13.572Z,93.60
2022-08-27T13:44:48.239Z,93.40
2022-08-27T13:47:25.466Z,93.40
2022-08-27T13:50:10.794Z,93.40
2022-08-27T13:53:03.221Z,93.30
2022-08-27T13:55:34.498Z,93.40
2022-08-27T13:58:23.797Z,93.40
2022-08-27T14:00:55.017Z,93.40
2022-08-27T14:03:57.609Z,93.40
2022-08-27T14:06:41.861Z,93.40
2022-08-27T14:09:27.744Z,93.30
2022-08-27T14:12:33.843Z,93.30
2022-08-27T14:15:24.553Z,93.30
2022-08-27T14:17:56.353Z,93.30
2022-08-27T14:20:27.406Z,93.30
2022-08-27T14:22:59.080Z,93.30
2022-08-27T14:25:29.983Z,93.30
2022-08-27T14:28:00.757Z,93.50
2022-08-27T14:30:31.259Z,93.70
2022-08-27T14:33:04.318Z,93.70
2022-08-27T14:35:37.403Z,93.60
2022-08-27T14:38:23.420Z,93.70
2022-08-27T14:40:56.521Z,93.70
2022-08-27T14:43:27.137Z,93.70
2022-08-27T14:45:58.932Z,93.90
2022-08-27T14:48:34.063Z,93.80
2022-08-27T14:51:12.799Z,93.80
2022-08-27T14:53:43.230Z,93.90
2022-08-27T14:56:13.745Z,93.90
2022-08-27T14:58:44.474Z,93.80
2022-08-27T15:01:15.439Z,93.90
2022-08-27T15:03:51.813Z,94.00
2022-08-27T15:06:26.958Z,94.00
2022-08-27T15:08:58.229Z,94.00
2022-08-27T15:11:32.840Z,94.00
2022-08-27T15:14:06.520Z,93.90
2022-08-27T15:16:41.072Z,93.90
2022-08-27T15:19:14.460Z,93.90
2022-08-27T15:21:47.132Z,93.80
2022-08-27T15:24:27.515Z,93.80
2022-08-27T15:27:00.029Z,93.70
2022-08-27T15:29:30.709Z,93.70
2022-08-27T15:32:01.506Z,93.80
2022-08-27T15:34:32.249Z,93.60
2022-08-27T15:37:03.366Z,93.50
2022-08-27T15:39:33.748Z,93.60
2022-08-27T15:42:06.837Z,93.70
2022-08-27T15:44:38.459Z,93.60
2022-08-27T15:47:08.849Z,93.60
2022-08-27T15:49:39.605Z,93.60
2022-08-27T15:52:12.407Z,93.70
2022-08-27T15:54:49.758Z,93.80
2022-08-27T15:57:22.153Z,93.70
2022-08-27T15:59:52.664Z,93.70
2022-08-27T16:02:27.025Z,93.70
2022-08-27T16:04:57.396Z,93.80
2022-08-27T16:07:28.247Z,93.70
2022-08-27T16:09:59.013Z,93.80
2022-08-27T16:12:29.709Z,94.00
2022-08-27T16:15:00.011Z,94.10
2022-08-27T16:17:30.349Z,94.30
2022-08-27T16:20:01.134Z,94.20
2022-08-27T16:22:32.303Z,94.30
2022-08-27T16:25:03.072Z,94.50
2022-08-27T16:27:33.789Z,94.60
2022-08-27T16:30:04.772Z,94.50
2022-08-27T16:32:35.581Z,94.60
2022-08-27T16:35:06.592Z,94.70
2022-08-27T16:37:37.250Z,94.80
2022-08-27T16:40:07.975Z,94.80
2022-08-27T16:42:40.842Z,94.70
2022-08-27T16:45:14.359Z,94.80
2022-08-27T16:48:02.867Z,94.70
2022-08-27T16:50:36.307Z,94.70
2022-08-27T16:53:17.170Z,94.60
2022-08-27T16:55:49.166Z,94.70
2022-08-27T16:58:28.881Z,94.70
2022-08-27T17:01:06.551Z,94.90
2022-08-27T17:04:07.425Z,95.00
2022-08-27T17:06:37.921Z,94.90
2022-08-27T17:09:10.839Z,95.00
2022-08-27T17:11:45.929Z,95.00
2022-08-27T17:14:16.213Z,95.00
2022-08-27T17:16:48.145Z,95.00
2022-08-27T17:19:20.774Z,94.90
2022-08-27T17:21:52.422Z,95.10
2022-08-27T17:24:23.576Z,95.10
2022-08-27T17:26:53.966Z,95.00
2022-08-27T17:29:24.229Z,95.10
2022-08-27T17:31:54.685Z,95.00
2022-08-27T17:34:28.381Z,95.00
2022-08-27T17:36:58.697Z,94.90
2022-08-27T17:39:32.740Z,95.10
2022-08-27T17:42:03.069Z,95.20
2022-08-27T17:44:39.137Z,95.10
2022-08-27T17:47:11.185Z,95.00
2022-08-27T17:49:41.582Z,94.90
2022-08-27T17:52:15.502Z,94.90
2022-08-27T17:54:49.467Z,95.00
2022-08-27T17:57:24.250Z,95.00
2022-08-27T17:59:56.540Z,94.90
2022-08-27T18:02:39.605Z,94.70
2022-08-27T18:05:12.213Z,94.80
2022-08-27T18:07:44.023Z,95.20
2022-08-27T18:10:17.510Z,95.20
2022-08-27T18:12:48.607Z,95.20
2022-08-27T18:15:34.778Z,95.20
2022-08-27T18:18:06.253Z,95.10
2022-08-27T18:20:37.422Z,95.10
2022-08-27T18:23:13.434Z,95.20
2022-08-27T18:25:45.374Z,95.10
2022-08-27T18:28:17.431Z,95.20
2022-08-27T18:30:49.475Z,95.30
2022-08-27T18:33:19.707Z,95.30
2022-08-27T18:35:50.472Z,95.30
2022-08-27T18:38:27.264Z,95.20
2022-08-27T18:40:59.284Z,95.20
2022-08-27T18:43:36.568Z,95.20
2022-08-27T18:46:07.902Z,95.10
2022-08-27T18:48:38.992Z,95.10
2022-08-27T18:51:13.309Z,95.10
2022-08-27T18:53:45.384Z,95.20
2022-08-27T18:56:18.212Z,95.20
2022-08-27T18:58:49.687Z,95.30
2022-08-27T19:01:22.683Z,95.30
2022-08-27T19:03:56.497Z,95.30
2022-08-27T19:06:27.296Z,95.20
2022-08-27T19:08:57.667Z,95.30
2022-08-27T19:11:27.888Z,95.30
2022-08-27T19:13:58.122Z,95.20
2022-08-27T19:16:34.874Z,95.20
2022-08-27T19:19:06.923Z,95.10
2022-08-27T19:21:37.691Z,95.00
2022-08-27T19:24:08.680Z,94.90
2022-08-27T19:26:39.945Z,95.00
2022-08-27T19:29:10.806Z,95.10
2022-08-27T19:31:41.205Z,95.00
2022-08-27T19:34:12.435Z,94.90
2022-08-27T19:36:45.775Z,95.20
2022-08-27T19:39:16.872Z,95.20
2022-08-27T19:41:47.579Z,95.20
2022-08-27T19:44:17.927Z,95.00
2022-08-27T19:46:59.130Z,95.10
2022-08-27T19:49:29.803Z,95.10
2022-08-27T19:52:00.085Z,94.90
2022-08-27T19:54:32.763Z,94.90
2022-08-27T19:57:04.260Z,95.10
2022-08-27T19:59:34.924Z,95.10
2022-08-27T20:02:05.870Z,95.10
2022-08-27T20:04:47.560Z,95.10
2022-08-27T20:07:26.486Z,95.10
2022-08-27T20:09:57.009Z,95.20
2022-08-27T20:12:31.602Z,95.40
2022-08-27T20:15:01.804Z,95.20
2022-08-27T20:17:32.649Z,95.20
2022-08-27T20:20:03.991Z,95.10
2022-08-27T20:22:34.678Z,95.10
2022-08-27T20:25:05.332Z,95.20
2022-08-27T20:27:36.737Z,95.30
2022-08-27T20:30:08.358Z,95.40
2022-08-27T20:32:38.604Z,95.30
2022-08-27T20:35:10.149Z,95.50
2022-08-27T20:37:42.413Z,95.40
2022-08-27T20:40:17.759Z,95.60
2022-08-27T20:42:48.222Z,95.40
2022-08-27T20:45:20.890Z,95.50
2022-08-27T20:47:55.189Z,95.50
2022-08-27T20:50:27.800Z,95.60
2022-08-27T20:52:58.708Z,95.70
2022-08-27T20:55:29.252Z,95.50
2022-08-27T20:58:17.365Z,95.70
2022-08-27T21:00:47.856Z,95.60
2022-08-27T21:03:19.162Z,95.50
2022-08-27T21:05:50.606Z,95.50
2022-08-27T21:08:31.972Z,95.60
2022-08-27T21:11:02.662Z,95.60
2022-08-27T21:13:32.948Z,95.80
2022-08-27T21:16:03.777Z,96.00
2022-08-27T21:18:34.462Z,95.90
2022-08-27T21:21:09.717Z,95.80
2022-08-27T21:23:42.052Z,95.80
2022-08-27T21:26:15.896Z,95.70
2022-08-27T21:28:46.631Z,95.80
2022-08-27T21:31:17.457Z,95.80
2022-08-27T21:33:48.128Z,96.20
2022-08-27T21:36:18.968Z,95.70
2022-08-27T21:38:49.678Z,95.60
2022-08-27T21:41:20.647Z,95.60
2022-08-27T21:43:51.855Z,95.50
2022-08-27T21:46:23.685Z,95.40
2022-08-27T21:48:58.761Z,95.40
2022-08-27T21:51:29.717Z,95.50
2022-08-27T21:54:01.578Z,95.70
2022-08-27T21:56:32.610Z,95.80
2022-08-27T21:59:02.826Z,95.90
2022-08-27T22:01:33.302Z,95.80
2022-08-27T22:04:03.846Z,95.80
2022-08-27T22:06:34.825Z,95.70
2022-08-27T22:09:05.553Z,95.40
2022-08-27T22:11:36.410Z,95.20
2022-08-27T22:14:08.287Z,95.00
2022-08-27T22:16:42.514Z,94.90
2022-08-27T22:19:13.057Z,94.80
2022-08-27T22:21:43.683Z,94.90
2022-08-27T22:24:13.973Z,94.70
2022-08-27T22:26:44.309Z,94.60
2022-08-27T22:29:16.319Z,94.60
2022-08-27T22:31:48.162Z,94.30
2022-08-27T22:34:20.440Z,94.30
2022-08-27T22:36:51.878Z,94.20
2022-08-27T22:39:22.170Z,94.30
2022-08-27T22:41:56.359Z,93.90
2022-08-27T22:44:27.488Z,93.70
2022-08-27T22:46:58.334Z,93.30
2022-08-27T22:49:28.806Z,92.90
2022-08-27T22:51:59.655Z,93.10
2022-08-27T22:54:30.069Z,92.80
2022-08-27T22:57:00.321Z,92.70
2022-08-27T22:59:30.550Z,92.70
2022-08-27T23:02:01.593Z,92.40
2022-08-27T23:04:53.564Z,92.20
2022-08-27T23:07:24.600Z,91.30
2022-08-27T23:09:54.923Z,91.30
2022-08-27T23:12:25.409Z,90.60
2022-08-27T23:14:57.417Z,90.90
2022-08-27T23:17:28.079Z,91.20
2022-08-27T23:19:59.453Z,91.30
2022-08-27T23:22:30.229Z,91.20
2022-08-27T23:25:19.306Z,90.90
2022-08-27T23:27:50.414Z,90.10
2022-08-27T23:30:20.787Z,90.40
2022-08-27T23:32:53.916Z,90.60
2022-08-27T23:35:26.170Z,90.40
2022-08-27T23:37:57.020Z,89.20
2022-08-27T23:40:27.735Z,88.90
2022-08-27T23:42:58.413Z,89.10
2022-08-27T23:45:29.558Z,89.10
2022-08-27T23:48:05.612Z,88.90
2022-08-27T23:50:36.764Z,88.40
2022-08-27T23:53:09.181Z,87.90
2022-08-27T23:55:43.326Z,87.80
2022-08-27T23:58:14.884Z,87.00
